VSION73 KBNA-KLIT
Flight info
| Callsign | VSION73 |
|---|---|
| Flight time | 1h 15m |
| Altitude | 14000 |
| Route | T439 MARZZ T398 |
| Aircraft | SF50/L-SGBW/L |
Departure
| Time | 2026-04-24 04:24 |
|---|---|
| Airport | Nashville International Airport (KBNA) |
Arrival
| Time | 2026-04-24 05:39 |
|---|---|
| Airport | Bill & Hillary Clinton National Airport/Adams Field (KLIT) |
| Time | Latitude | Longitude | Altitude | Speed | Heading |
|---|---|---|---|---|---|
| 2026-04-24 03:55 | 36.13534 | -86.67207 | 561 ft | 0 kts | 15° |
| 2026-04-24 04:18 | 36.13535 | -86.67206 | 561 ft | 1 kts | 36° |
| 2026-04-24 04:18 | 36.13513 | -86.67214 | 561 ft | 10 kts | 217° |
| 2026-04-24 04:19 | 36.13441 | -86.67277 | 559 ft | 12 kts | 217° |
| 2026-04-24 04:19 | 36.13432 | -86.67363 | 561 ft | 11 kts | 288° |
| 2026-04-24 04:19 | 36.13456 | -86.67453 | 556 ft | 11 kts | 288° |
| 2026-04-24 04:19 | 36.13477 | -86.67535 | 559 ft | 8 kts | 289° |
| 2026-04-24 04:20 | 36.13497 | -86.67611 | 563 ft | 13 kts | 287° |
| 2026-04-24 04:20 | 36.13524 | -86.67731 | 563 ft | 13 kts | 298° |
| 2026-04-24 04:20 | 36.13599 | -86.67746 | 564 ft | 11 kts | 15° |
| 2026-04-24 04:20 | 36.13659 | -86.67726 | 559 ft | 7 kts | 14° |
| 2026-04-24 04:21 | 36.13700 | -86.67712 | 559 ft | 6 kts | 14° |
| 2026-04-24 04:21 | 36.13730 | -86.67717 | 558 ft | 4 kts | 325° |
| 2026-04-24 04:21 | 36.13738 | -86.67728 | 558 ft | 0 kts | 301° |
| 2026-04-24 04:22 | 36.13746 | -86.67749 | 558 ft | 11 kts | 291° |
| 2026-04-24 04:22 | 36.13765 | -86.67829 | 562 ft | 8 kts | 279° |
| 2026-04-24 04:22 | 36.13753 | -86.67873 | 560 ft | 0 kts | 206° |
| 2026-04-24 04:23 | 36.13752 | -86.67874 | 560 ft | 3 kts | 206° |
| 2026-04-24 04:23 | 36.13565 | -86.67954 | 561 ft | 59 kts | 198° |
| 2026-04-24 04:23 | 36.13014 | -86.68159 | 610 ft | 103 kts | 197° |
| 2026-04-24 04:23 | 36.12302 | -86.68437 | 1017 ft | 106 kts | 195° |
| 2026-04-24 04:24 | 36.11521 | -86.68717 | 1308 ft | 130 kts | 197° |
| 2026-04-24 04:24 | 36.10663 | -86.69052 | 1976 ft | 126 kts | 200° |
| 2026-04-24 04:24 | 36.09929 | -86.69586 | 2675 ft | 125 kts | 227° |
| 2026-04-24 04:24 | 36.09665 | -86.70594 | 3320 ft | 123 kts | 249° |
| 2026-04-24 04:25 | 36.09344 | -86.71615 | 3720 ft | 129 kts | 237° |
| 2026-04-24 04:25 | 36.08921 | -86.72577 | 4273 ft | 126 kts | 233° |
| 2026-04-24 04:25 | 36.08423 | -86.73479 | 4792 ft | 127 kts | 231° |
| 2026-04-24 04:25 | 36.07919 | -86.74389 | 5294 ft | 129 kts | 231° |
| 2026-04-24 04:26 | 36.07416 | -86.75321 | 5783 ft | 131 kts | 233° |
| 2026-04-24 04:26 | 36.06959 | -86.76285 | 6339 ft | 130 kts | 244° |
| 2026-04-24 04:26 | 36.06809 | -86.77420 | 6775 ft | 141 kts | 265° |
| 2026-04-24 04:26 | 36.07007 | -86.78625 | 7268 ft | 142 kts | 281° |
| 2026-04-24 04:27 | 36.07277 | -86.79783 | 7793 ft | 138 kts | 277° |
| 2026-04-24 04:27 | 36.07442 | -86.80952 | 8283 ft | 138 kts | 274° |
| 2026-04-24 04:27 | 36.07619 | -86.82121 | 8755 ft | 139 kts | 277° |
| 2026-04-24 04:27 | 36.07840 | -86.83287 | 9262 ft | 140 kts | 279° |
| 2026-04-24 04:28 | 36.08067 | -86.84437 | 9764 ft | 139 kts | 280° |
| 2026-04-24 04:28 | 36.08307 | -86.85607 | 10239 ft | 138 kts | 280° |
| 2026-04-24 04:28 | 36.08536 | -86.86733 | 10704 ft | 135 kts | 281° |
| 2026-04-24 04:28 | 36.08772 | -86.87872 | 11160 ft | 134 kts | 281° |
| 2026-04-24 04:29 | 36.08860 | -86.88980 | 11610 ft | 130 kts | 268° |
| 2026-04-24 04:29 | 36.08891 | -86.90085 | 12072 ft | 127 kts | 272° |
| 2026-04-24 04:29 | 36.08925 | -86.91159 | 12535 ft | 123 kts | 270° |
| 2026-04-24 04:29 | 36.08961 | -86.92196 | 13003 ft | 118 kts | 272° |
| 2026-04-24 04:30 | 36.08990 | -86.93185 | 13467 ft | 112 kts | 272° |
| 2026-04-24 04:30 | 36.09023 | -86.94109 | 13891 ft | 105 kts | 272° |
| 2026-04-24 04:30 | 36.09055 | -86.95093 | 13992 ft | 128 kts | 274° |
| 2026-04-24 04:30 | 36.09096 | -86.96317 | 14006 ft | 157 kts | 273° |
| 2026-04-24 04:31 | 36.09146 | -86.97784 | 13996 ft | 184 kts | 273° |
| 2026-04-24 04:31 | 36.09204 | -86.99454 | 13987 ft | 204 kts | 272° |
| 2026-04-24 04:31 | 36.09263 | -87.01278 | 13984 ft | 219 kts | 273° |
| 2026-04-24 04:31 | 36.09330 | -87.03210 | 13984 ft | 230 kts | 272° |
| 2026-04-24 04:32 | 36.09396 | -87.05223 | 13985 ft | 238 kts | 272° |
| 2026-04-24 04:32 | 36.09467 | -87.07290 | 13987 ft | 242 kts | 272° |
| 2026-04-24 04:32 | 36.09536 | -87.09388 | 13988 ft | 245 kts | 272° |
| 2026-04-24 04:32 | 36.09606 | -87.11507 | 13987 ft | 247 kts | 272° |
| 2026-04-24 04:33 | 36.09675 | -87.13638 | 13988 ft | 249 kts | 272° |
| 2026-04-24 04:33 | 36.09744 | -87.15777 | 13986 ft | 249 kts | 272° |
| 2026-04-24 04:33 | 36.09814 | -87.17921 | 13991 ft | 250 kts | 272° |
| 2026-04-24 04:33 | 36.09884 | -87.20073 | 13997 ft | 250 kts | 272° |
| 2026-04-24 04:34 | 36.09843 | -87.22213 | 13988 ft | 250 kts | 262° |
| 2026-04-24 04:34 | 36.09421 | -87.24302 | 13988 ft | 250 kts | 256° |
| 2026-04-24 04:34 | 36.09006 | -87.26376 | 13990 ft | 255 kts | 257° |
| 2026-04-24 04:34 | 36.08587 | -87.28530 | 13994 ft | 260 kts | 257° |
| 2026-04-24 04:35 | 36.08142 | -87.30741 | 13994 ft | 263 kts | 257° |
| 2026-04-24 04:35 | 36.07696 | -87.32949 | 13990 ft | 266 kts | 257° |
| 2026-04-24 04:35 | 36.07253 | -87.35146 | 13989 ft | 268 kts | 256° |
| 2026-04-24 04:35 | 36.06800 | -87.37387 | 13995 ft | 269 kts | 257° |
| 2026-04-24 04:36 | 36.06346 | -87.39639 | 13994 ft | 271 kts | 256° |
| 2026-04-24 04:36 | 36.05889 | -87.41897 | 13994 ft | 272 kts | 256° |
| 2026-04-24 04:36 | 36.05431 | -87.44164 | 13995 ft | 272 kts | 256° |
| 2026-04-24 04:36 | 36.04971 | -87.46437 | 13994 ft | 273 kts | 256° |
| 2026-04-24 04:37 | 36.04510 | -87.48715 | 13994 ft | 274 kts | 256° |
| 2026-04-24 04:37 | 36.04048 | -87.50995 | 13994 ft | 274 kts | 256° |
| 2026-04-24 04:37 | 36.03584 | -87.53279 | 13994 ft | 274 kts | 256° |
| 2026-04-24 04:37 | 36.03119 | -87.55564 | 13992 ft | 275 kts | 256° |
| 2026-04-24 04:38 | 36.02653 | -87.57855 | 13989 ft | 275 kts | 256° |
| 2026-04-24 04:38 | 36.02187 | -87.60140 | 13989 ft | 275 kts | 256° |
| 2026-04-24 04:38 | 36.01722 | -87.62427 | 13985 ft | 275 kts | 256° |
| 2026-04-24 04:38 | 36.01254 | -87.64718 | 13989 ft | 275 kts | 256° |
| 2026-04-24 04:39 | 36.00785 | -87.67008 | 13987 ft | 275 kts | 256° |
| 2026-04-24 04:39 | 36.00317 | -87.69299 | 13989 ft | 275 kts | 256° |
| 2026-04-24 04:39 | 35.99848 | -87.71590 | 13981 ft | 275 kts | 256° |
| 2026-04-24 04:39 | 35.99377 | -87.73886 | 13980 ft | 276 kts | 256° |
| 2026-04-24 04:40 | 35.98907 | -87.76182 | 13981 ft | 276 kts | 256° |
| 2026-04-24 04:40 | 35.98435 | -87.78478 | 13982 ft | 276 kts | 256° |
| 2026-04-24 04:40 | 35.97969 | -87.80741 | 13981 ft | 276 kts | 256° |
| 2026-04-24 04:40 | 35.97497 | -87.83038 | 13981 ft | 276 kts | 256° |
| 2026-04-24 04:41 | 35.97023 | -87.85325 | 13979 ft | 276 kts | 256° |
| 2026-04-24 04:41 | 35.96549 | -87.87623 | 13970 ft | 276 kts | 256° |
| 2026-04-24 04:41 | 35.96076 | -87.89914 | 13967 ft | 276 kts | 256° |
| 2026-04-24 04:41 | 35.95602 | -87.92212 | 13967 ft | 276 kts | 256° |
| 2026-04-24 04:42 | 35.95127 | -87.94505 | 13970 ft | 276 kts | 256° |
| 2026-04-24 04:42 | 35.94652 | -87.96796 | 13972 ft | 276 kts | 256° |
| 2026-04-24 04:42 | 35.94178 | -87.99091 | 13972 ft | 276 kts | 256° |
| 2026-04-24 04:42 | 35.93701 | -88.01383 | 13972 ft | 276 kts | 256° |
| 2026-04-24 04:43 | 35.93225 | -88.03675 | 13968 ft | 276 kts | 256° |
| 2026-04-24 04:43 | 35.92747 | -88.05969 | 13968 ft | 276 kts | 256° |
| 2026-04-24 04:43 | 35.92269 | -88.08262 | 13968 ft | 276 kts | 256° |
| 2026-04-24 04:43 | 35.91790 | -88.10553 | 13969 ft | 276 kts | 256° |
| 2026-04-24 04:44 | 35.91313 | -88.12843 | 13967 ft | 275 kts | 256° |
| 2026-04-24 04:44 | 35.90837 | -88.15126 | 13966 ft | 275 kts | 256° |
| 2026-04-24 04:44 | 35.90359 | -88.17412 | 13962 ft | 275 kts | 256° |
| 2026-04-24 04:44 | 35.89887 | -88.19667 | 13961 ft | 275 kts | 256° |
| 2026-04-24 04:45 | 35.89409 | -88.21950 | 13964 ft | 275 kts | 256° |
| 2026-04-24 04:45 | 35.88930 | -88.24235 | 13966 ft | 275 kts | 256° |
| 2026-04-24 04:45 | 35.88455 | -88.26517 | 13966 ft | 274 kts | 257° |
| 2026-04-24 04:45 | 35.88234 | -88.28842 | 13960 ft | 273 kts | 266° |
| 2026-04-24 04:46 | 35.88093 | -88.31179 | 13960 ft | 273 kts | 265° |
| 2026-04-24 04:46 | 35.87923 | -88.33511 | 13956 ft | 273 kts | 265° |
| 2026-04-24 04:46 | 35.87760 | -88.35843 | 13957 ft | 273 kts | 265° |
| 2026-04-24 04:46 | 35.87604 | -88.38182 | 13957 ft | 274 kts | 265° |
| 2026-04-24 04:47 | 35.87448 | -88.40518 | 13958 ft | 274 kts | 265° |
| 2026-04-24 04:47 | 35.87287 | -88.42858 | 13958 ft | 274 kts | 265° |
| 2026-04-24 04:47 | 35.87127 | -88.45199 | 13958 ft | 274 kts | 265° |
| 2026-04-24 04:47 | 35.86968 | -88.47535 | 13952 ft | 274 kts | 265° |
| 2026-04-24 04:48 | 35.86806 | -88.49876 | 13952 ft | 274 kts | 265° |
| 2026-04-24 04:48 | 35.86699 | -88.51421 | 13952 ft | 273 kts | 265° |
| 2026-04-24 04:48 | 35.86535 | -88.53760 | 13951 ft | 273 kts | 265° |
| 2026-04-24 04:48 | 35.86375 | -88.56091 | 13949 ft | 273 kts | 265° |
| 2026-04-24 04:49 | 35.86212 | -88.58423 | 13951 ft | 273 kts | 265° |
| 2026-04-24 04:49 | 35.86050 | -88.60750 | 13949 ft | 273 kts | 265° |
| 2026-04-24 04:49 | 35.85887 | -88.63076 | 13925 ft | 272 kts | 265° |
| 2026-04-24 04:49 | 35.85725 | -88.65406 | 13929 ft | 273 kts | 265° |
| 2026-04-24 04:50 | 35.85561 | -88.67731 | 13933 ft | 272 kts | 265° |
| 2026-04-24 04:50 | 35.85397 | -88.70058 | 13931 ft | 272 kts | 265° |
| 2026-04-24 04:50 | 35.85233 | -88.72380 | 13937 ft | 272 kts | 265° |
| 2026-04-24 04:50 | 35.85067 | -88.74704 | 13938 ft | 272 kts | 265° |
| 2026-04-24 04:51 | 35.84901 | -88.77028 | 13953 ft | 272 kts | 265° |
| 2026-04-24 04:51 | 35.84736 | -88.79344 | 13967 ft | 271 kts | 265° |
| 2026-04-24 04:51 | 35.84569 | -88.81661 | 13967 ft | 272 kts | 265° |
| 2026-04-24 04:51 | 35.84404 | -88.83983 | 13969 ft | 272 kts | 265° |
| 2026-04-24 04:52 | 35.84235 | -88.86301 | 13967 ft | 270 kts | 265° |
| 2026-04-24 04:52 | 35.83961 | -88.88579 | 13968 ft | 271 kts | 258° |
| 2026-04-24 04:52 | 35.83395 | -88.90804 | 13970 ft | 272 kts | 251° |
| 2026-04-24 04:52 | 35.82675 | -88.92958 | 13972 ft | 272 kts | 249° |
| 2026-04-24 04:53 | 35.81927 | -88.95108 | 13972 ft | 273 kts | 248° |
| 2026-04-24 04:53 | 35.81189 | -88.97229 | 13974 ft | 273 kts | 248° |
| 2026-04-24 04:53 | 35.80437 | -88.99380 | 13975 ft | 273 kts | 248° |
| 2026-04-24 04:53 | 35.79682 | -89.01527 | 13975 ft | 273 kts | 248° |
| 2026-04-24 04:54 | 35.78971 | -89.03692 | 13974 ft | 273 kts | 252° |
| 2026-04-24 04:54 | 35.78375 | -89.05915 | 13974 ft | 272 kts | 253° |
| 2026-04-24 04:54 | 35.77749 | -89.08120 | 13952 ft | 273 kts | 251° |
| 2026-04-24 04:54 | 35.77076 | -89.10306 | 13960 ft | 273 kts | 250° |
| 2026-04-24 04:55 | 35.76410 | -89.12500 | 13963 ft | 273 kts | 251° |
| 2026-04-24 04:55 | 35.75759 | -89.14697 | 13963 ft | 274 kts | 251° |
| 2026-04-24 04:55 | 35.75104 | -89.16900 | 13963 ft | 274 kts | 251° |
| 2026-04-24 04:55 | 35.74443 | -89.19095 | 13960 ft | 274 kts | 251° |
| 2026-04-24 04:56 | 35.73782 | -89.21295 | 13958 ft | 274 kts | 251° |
| 2026-04-24 04:56 | 35.73122 | -89.23495 | 13957 ft | 274 kts | 251° |
| 2026-04-24 04:56 | 35.72460 | -89.25696 | 13955 ft | 274 kts | 251° |
| 2026-04-24 04:56 | 35.71808 | -89.27867 | 13956 ft | 274 kts | 251° |
| 2026-04-24 04:57 | 35.71144 | -89.30079 | 13955 ft | 274 kts | 251° |
| 2026-04-24 04:57 | 35.70480 | -89.32284 | 13955 ft | 273 kts | 251° |
| 2026-04-24 04:57 | 35.69827 | -89.34449 | 13955 ft | 273 kts | 251° |
| 2026-04-24 04:57 | 35.69167 | -89.36640 | 13955 ft | 273 kts | 251° |
| 2026-04-24 04:58 | 35.68497 | -89.38860 | 13956 ft | 273 kts | 251° |
| 2026-04-24 04:58 | 35.67836 | -89.41050 | 13952 ft | 273 kts | 251° |
| 2026-04-24 04:58 | 35.67173 | -89.43242 | 13952 ft | 273 kts | 251° |
| 2026-04-24 04:58 | 35.66518 | -89.45403 | 13952 ft | 273 kts | 251° |
| 2026-04-24 04:59 | 35.65856 | -89.47593 | 13953 ft | 273 kts | 251° |
| 2026-04-24 04:59 | 35.65192 | -89.49783 | 13953 ft | 273 kts | 251° |
| 2026-04-24 04:59 | 35.64528 | -89.51973 | 13952 ft | 273 kts | 251° |
| 2026-04-24 04:59 | 35.63864 | -89.54167 | 13953 ft | 273 kts | 251° |
| 2026-04-24 05:00 | 35.63199 | -89.56358 | 13945 ft | 273 kts | 251° |
| 2026-04-24 05:00 | 35.62534 | -89.58545 | 13944 ft | 273 kts | 251° |
| 2026-04-24 05:00 | 35.61868 | -89.60734 | 13944 ft | 273 kts | 251° |
| 2026-04-24 05:00 | 35.61204 | -89.62918 | 13944 ft | 273 kts | 251° |
| 2026-04-24 05:01 | 35.60539 | -89.65100 | 13944 ft | 273 kts | 251° |
| 2026-04-24 05:01 | 35.59873 | -89.67285 | 13945 ft | 273 kts | 251° |
| 2026-04-24 05:01 | 35.59208 | -89.69465 | 13928 ft | 273 kts | 251° |
| 2026-04-24 05:01 | 35.58542 | -89.71648 | 13928 ft | 273 kts | 251° |
| 2026-04-24 05:02 | 35.57874 | -89.73832 | 13929 ft | 273 kts | 251° |
| 2026-04-24 05:02 | 35.57207 | -89.76016 | 13929 ft | 273 kts | 251° |
| 2026-04-24 05:02 | 35.56540 | -89.78201 | 13929 ft | 273 kts | 251° |
| 2026-04-24 05:02 | 35.55870 | -89.80389 | 13929 ft | 273 kts | 251° |
| 2026-04-24 05:03 | 35.55201 | -89.82574 | 13931 ft | 273 kts | 251° |
| 2026-04-24 05:03 | 35.54531 | -89.84758 | 13934 ft | 273 kts | 251° |
| 2026-04-24 05:03 | 35.53861 | -89.86937 | 13934 ft | 273 kts | 251° |
| 2026-04-24 05:03 | 35.53192 | -89.89116 | 13935 ft | 273 kts | 251° |
| 2026-04-24 05:04 | 35.52522 | -89.91296 | 13934 ft | 273 kts | 251° |
| 2026-04-24 05:04 | 35.51850 | -89.93479 | 13934 ft | 273 kts | 251° |
| 2026-04-24 05:04 | 35.51179 | -89.95661 | 13934 ft | 273 kts | 251° |
| 2026-04-24 05:04 | 35.50508 | -89.97841 | 13934 ft | 273 kts | 251° |
| 2026-04-24 05:05 | 35.49837 | -90.00021 | 13918 ft | 273 kts | 251° |
| 2026-04-24 05:05 | 35.49164 | -90.02203 | 13917 ft | 273 kts | 251° |
| 2026-04-24 05:05 | 35.48492 | -90.04381 | 13918 ft | 273 kts | 251° |
| 2026-04-24 05:05 | 35.47819 | -90.06559 | 13918 ft | 273 kts | 251° |
| 2026-04-24 05:06 | 35.47145 | -90.08736 | 13918 ft | 273 kts | 251° |
| 2026-04-24 05:06 | 35.46472 | -90.10911 | 13917 ft | 273 kts | 251° |
| 2026-04-24 05:06 | 35.45798 | -90.13086 | 13917 ft | 273 kts | 251° |
| 2026-04-24 05:06 | 35.45123 | -90.15264 | 13918 ft | 273 kts | 251° |
| 2026-04-24 05:07 | 35.44449 | -90.17438 | 13917 ft | 273 kts | 251° |
| 2026-04-24 05:07 | 35.43774 | -90.19615 | 13918 ft | 273 kts | 251° |
| 2026-04-24 05:07 | 35.43099 | -90.21790 | 13918 ft | 273 kts | 251° |
| 2026-04-24 05:07 | 35.42423 | -90.23966 | 13918 ft | 273 kts | 251° |
| 2026-04-24 05:08 | 35.41748 | -90.26138 | 13918 ft | 273 kts | 251° |
| 2026-04-24 05:08 | 35.41073 | -90.28308 | 13918 ft | 273 kts | 251° |
| 2026-04-24 05:08 | 35.40404 | -90.30454 | 13918 ft | 273 kts | 251° |
| 2026-04-24 05:08 | 35.39725 | -90.32626 | 13917 ft | 273 kts | 251° |
| 2026-04-24 05:09 | 35.39050 | -90.34793 | 13813 ft | 268 kts | 251° |
| 2026-04-24 05:09 | 35.38388 | -90.36910 | 13563 ft | 264 kts | 251° |
| 2026-04-24 05:09 | 35.37737 | -90.38994 | 13380 ft | 259 kts | 251° |
| 2026-04-24 05:09 | 35.37100 | -90.41032 | 13222 ft | 253 kts | 251° |
| 2026-04-24 05:10 | 35.36475 | -90.43033 | 13065 ft | 250 kts | 251° |
| 2026-04-24 05:10 | 35.35922 | -90.45038 | 12909 ft | 247 kts | 255° |
| 2026-04-24 05:10 | 35.35455 | -90.47057 | 12760 ft | 246 kts | 255° |
| 2026-04-24 05:10 | 35.34938 | -90.49051 | 12608 ft | 246 kts | 253° |
| 2026-04-24 05:11 | 35.34413 | -90.51042 | 12461 ft | 245 kts | 254° |
| 2026-04-24 05:11 | 35.33902 | -90.53041 | 12311 ft | 245 kts | 254° |
| 2026-04-24 05:11 | 35.33397 | -90.55034 | 12161 ft | 245 kts | 254° |
| 2026-04-24 05:11 | 35.32888 | -90.57021 | 12011 ft | 245 kts | 254° |
| 2026-04-24 05:12 | 35.32377 | -90.59013 | 11858 ft | 245 kts | 254° |
| 2026-04-24 05:12 | 35.31868 | -90.61003 | 11710 ft | 245 kts | 254° |
| 2026-04-24 05:12 | 35.31355 | -90.62997 | 11572 ft | 245 kts | 254° |
| 2026-04-24 05:12 | 35.30851 | -90.64965 | 11427 ft | 245 kts | 254° |
| 2026-04-24 05:13 | 35.29830 | -90.68944 | 11136 ft | 245 kts | 253° |
| 2026-04-24 05:13 | 35.29317 | -90.70935 | 10990 ft | 245 kts | 253° |
| 2026-04-24 05:13 | 35.28806 | -90.72924 | 10848 ft | 245 kts | 254° |
| 2026-04-24 05:14 | 35.28294 | -90.74913 | 10697 ft | 245 kts | 253° |
| 2026-04-24 05:14 | 35.27781 | -90.76900 | 10569 ft | 244 kts | 253° |
| 2026-04-24 05:14 | 35.27270 | -90.78881 | 10425 ft | 243 kts | 253° |
| 2026-04-24 05:14 | 35.26760 | -90.80852 | 10285 ft | 243 kts | 253° |
| 2026-04-24 05:15 | 35.26251 | -90.82824 | 10147 ft | 243 kts | 253° |
| 2026-04-24 05:15 | 35.25740 | -90.84798 | 10006 ft | 243 kts | 252° |
| 2026-04-24 05:15 | 35.25230 | -90.86768 | 9867 ft | 243 kts | 252° |
| 2026-04-24 05:15 | 35.24720 | -90.88739 | 9722 ft | 243 kts | 252° |
| 2026-04-24 05:16 | 35.24210 | -90.90708 | 9555 ft | 243 kts | 252° |
| 2026-04-24 05:16 | 35.23698 | -90.92683 | 9407 ft | 244 kts | 252° |
| 2026-04-24 05:16 | 35.23185 | -90.94663 | 9254 ft | 244 kts | 252° |
| 2026-04-24 05:16 | 35.22670 | -90.96642 | 9101 ft | 244 kts | 252° |
| 2026-04-24 05:17 | 35.22157 | -90.98619 | 8952 ft | 244 kts | 251° |
| 2026-04-24 05:17 | 35.21644 | -91.00593 | 8826 ft | 243 kts | 251° |
| 2026-04-24 05:17 | 35.21133 | -91.02554 | 8700 ft | 242 kts | 251° |
| 2026-04-24 05:17 | 35.20624 | -91.04510 | 8575 ft | 241 kts | 251° |
| 2026-04-24 05:18 | 35.20121 | -91.06434 | 8450 ft | 241 kts | 251° |
| 2026-04-24 05:18 | 35.19612 | -91.08384 | 8332 ft | 240 kts | 251° |
| 2026-04-24 05:18 | 35.19099 | -91.10351 | 8206 ft | 239 kts | 250° |
| 2026-04-24 05:18 | 35.18593 | -91.12283 | 8083 ft | 239 kts | 250° |
| 2026-04-24 05:19 | 35.18098 | -91.14181 | 8021 ft | 236 kts | 250° |
| 2026-04-24 05:19 | 35.17602 | -91.16076 | 8020 ft | 232 kts | 250° |
| 2026-04-24 05:19 | 35.17114 | -91.17944 | 8018 ft | 229 kts | 250° |
| 2026-04-24 05:19 | 35.16629 | -91.19792 | 8017 ft | 228 kts | 250° |
| 2026-04-24 05:20 | 35.16147 | -91.21631 | 8019 ft | 227 kts | 250° |
| 2026-04-24 05:20 | 35.15665 | -91.23469 | 8022 ft | 226 kts | 250° |
| 2026-04-24 05:20 | 35.15184 | -91.25298 | 8022 ft | 226 kts | 250° |
| 2026-04-24 05:20 | 35.14702 | -91.27129 | 8021 ft | 226 kts | 250° |
| 2026-04-24 05:21 | 35.14224 | -91.28955 | 8024 ft | 226 kts | 250° |
| 2026-04-24 05:21 | 35.13741 | -91.30782 | 8019 ft | 226 kts | 250° |
| 2026-04-24 05:21 | 35.13260 | -91.32608 | 8018 ft | 226 kts | 250° |
| 2026-04-24 05:21 | 35.12780 | -91.34434 | 8018 ft | 226 kts | 250° |
| 2026-04-24 05:22 | 35.12297 | -91.36261 | 8023 ft | 226 kts | 250° |
| 2026-04-24 05:22 | 35.11816 | -91.38087 | 8022 ft | 226 kts | 250° |
| 2026-04-24 05:22 | 35.11335 | -91.39910 | 8023 ft | 226 kts | 250° |
| 2026-04-24 05:22 | 35.10860 | -91.41711 | 8022 ft | 226 kts | 250° |
| 2026-04-24 05:23 | 35.10378 | -91.43534 | 8018 ft | 226 kts | 250° |
| 2026-04-24 05:23 | 35.09895 | -91.45359 | 8018 ft | 226 kts | 250° |
| 2026-04-24 05:23 | 35.09412 | -91.47182 | 8018 ft | 226 kts | 250° |
| 2026-04-24 05:23 | 35.08929 | -91.49006 | 8018 ft | 226 kts | 250° |
| 2026-04-24 05:24 | 35.08444 | -91.50835 | 8019 ft | 226 kts | 250° |
| 2026-04-24 05:24 | 35.07959 | -91.52660 | 8020 ft | 226 kts | 250° |
| 2026-04-24 05:24 | 35.07477 | -91.54477 | 8011 ft | 225 kts | 250° |
| 2026-04-24 05:24 | 35.06993 | -91.56295 | 8011 ft | 225 kts | 250° |
| 2026-04-24 05:25 | 35.06511 | -91.58112 | 8014 ft | 225 kts | 250° |
| 2026-04-24 05:25 | 35.06028 | -91.59925 | 7982 ft | 226 kts | 250° |
| 2026-04-24 05:25 | 35.05543 | -91.61752 | 7933 ft | 227 kts | 250° |
| 2026-04-24 05:25 | 35.05055 | -91.63583 | 7883 ft | 227 kts | 249° |
| 2026-04-24 05:26 | 35.04565 | -91.65421 | 7834 ft | 227 kts | 249° |
| 2026-04-24 05:26 | 35.04078 | -91.67250 | 7786 ft | 227 kts | 249° |
| 2026-04-24 05:26 | 35.03589 | -91.69082 | 7704 ft | 228 kts | 249° |
| 2026-04-24 05:26 | 35.03094 | -91.70931 | 7584 ft | 230 kts | 249° |
| 2026-04-24 05:27 | 35.02598 | -91.72786 | 7462 ft | 231 kts | 249° |
| 2026-04-24 05:27 | 35.02100 | -91.74649 | 7342 ft | 231 kts | 249° |
| 2026-04-24 05:27 | 35.01600 | -91.76513 | 7222 ft | 231 kts | 249° |
| 2026-04-24 05:27 | 35.01108 | -91.78355 | 7105 ft | 231 kts | 249° |
| 2026-04-24 05:28 | 35.00609 | -91.80210 | 6990 ft | 230 kts | 249° |
| 2026-04-24 05:28 | 35.00112 | -91.82067 | 6871 ft | 230 kts | 249° |
| 2026-04-24 05:28 | 34.99615 | -91.83921 | 6751 ft | 230 kts | 248° |
| 2026-04-24 05:28 | 34.99117 | -91.85775 | 6630 ft | 229 kts | 248° |
| 2026-04-24 05:29 | 34.98621 | -91.87621 | 6511 ft | 229 kts | 248° |
| 2026-04-24 05:29 | 34.98126 | -91.89462 | 6395 ft | 228 kts | 248° |
| 2026-04-24 05:29 | 34.97632 | -91.91303 | 6278 ft | 228 kts | 248° |
| 2026-04-24 05:29 | 34.97135 | -91.93143 | 6153 ft | 228 kts | 248° |
| 2026-04-24 05:30 | 34.96640 | -91.94979 | 6028 ft | 228 kts | 247° |
| 2026-04-24 05:30 | 34.96145 | -91.96815 | 5902 ft | 228 kts | 247° |
| 2026-04-24 05:30 | 34.95649 | -91.98651 | 5779 ft | 228 kts | 247° |
| 2026-04-24 05:30 | 34.95153 | -92.00486 | 5646 ft | 228 kts | 247° |
| 2026-04-24 05:31 | 34.94655 | -92.02322 | 5528 ft | 228 kts | 247° |
| 2026-04-24 05:31 | 34.94160 | -92.04158 | 5407 ft | 229 kts | 247° |
| 2026-04-24 05:31 | 34.93662 | -92.05996 | 5284 ft | 229 kts | 247° |
| 2026-04-24 05:31 | 34.93164 | -92.07838 | 5160 ft | 228 kts | 248° |
| 2026-04-24 05:32 | 34.92878 | -92.09759 | 5033 ft | 235 kts | 261° |
| 2026-04-24 05:32 | 34.92903 | -92.11754 | 4927 ft | 236 kts | 265° |
| 2026-04-24 05:32 | 34.92962 | -92.13748 | 4828 ft | 235 kts | 265° |
| 2026-04-24 05:32 | 34.92904 | -92.15726 | 4589 ft | 232 kts | 253° |
| 2026-04-24 05:33 | 34.92150 | -92.17330 | 4637 ft | 212 kts | 219° |
| 2026-04-24 05:33 | 34.90970 | -92.18347 | 4494 ft | 213 kts | 212° |
| 2026-04-24 05:33 | 34.89774 | -92.19424 | 4441 ft | 201 kts | 214° |
| 2026-04-24 05:34 | 34.87849 | -92.20962 | 3962 ft | 148 kts | 206° |
| 2026-04-24 05:34 | 34.86965 | -92.21568 | 3479 ft | 143 kts | 206° |
| 2026-04-24 05:34 | 34.86079 | -92.22151 | 2935 ft | 142 kts | 202° |
| 2026-04-24 05:34 | 34.85253 | -92.22601 | 2666 ft | 114 kts | 199° |
| 2026-04-24 05:35 | 34.84615 | -92.22863 | 2425 ft | 83 kts | 195° |
| 2026-04-24 05:35 | 34.84083 | -92.23057 | 2220 ft | 77 kts | 195° |
| 2026-04-24 05:35 | 34.83585 | -92.23237 | 2031 ft | 76 kts | 194° |
| 2026-04-24 05:35 | 34.83060 | -92.23433 | 1823 ft | 78 kts | 192° |
| 2026-04-24 05:36 | 34.82702 | -92.23467 | 1756 ft | 78 kts | 190° |
| 2026-04-24 05:36 | 34.82033 | -92.23511 | 1841 ft | 67 kts | 187° |
| 2026-04-24 05:36 | 34.81720 | -92.23528 | 1847 ft | 68 kts | 188° |
| 2026-04-24 05:36 | 34.81238 | -92.23538 | 1782 ft | 76 kts | 184° |
| 2026-04-24 05:37 | 34.80682 | -92.23531 | 1606 ft | 81 kts | 187° |
| 2026-04-24 05:37 | 34.80084 | -92.23553 | 1311 ft | 91 kts | 189° |
| 2026-04-24 05:37 | 34.79506 | -92.23649 | 1252 ft | 83 kts | 188° |
| 2026-04-24 05:37 | 34.78939 | -92.23725 | 1192 ft | 87 kts | 190° |
| 2026-04-24 05:38 | 34.78302 | -92.23747 | 1142 ft | 97 kts | 180° |
| 2026-04-24 05:38 | 34.77545 | -92.23685 | 1183 ft | 116 kts | 181° |
| 2026-04-24 05:38 | 34.76789 | -92.23710 | 1155 ft | 107 kts | 185° |
| 2026-04-24 05:38 | 34.76008 | -92.23748 | 909 ft | 120 kts | 180° |
| 2026-04-24 05:39 | 34.75146 | -92.23779 | 641 ft | 123 kts | 182° |
| 2026-04-24 05:39 | 34.74370 | -92.23790 | 405 ft | 108 kts | 183° |
| 2026-04-24 05:39 | 34.73712 | -92.23819 | 261 ft | 78 kts | 184° |
| 2026-04-24 05:39 | 34.73407 | -92.23856 | 260 ft | 11 kts | 239° |
| 2026-04-24 05:40 | 34.73398 | -92.23918 | 261 ft | 0 kts | 272° |
| 2026-04-24 05:41 | 34.73386 | -92.23956 | 261 ft | 4 kts | 217° |
| 2026-04-24 05:41 | 34.73363 | -92.23964 | 261 ft | 4 kts | 185° |
| 2026-04-24 05:41 | 34.73301 | -92.23967 | 261 ft | 10 kts | 182° |
| 2026-04-24 05:41 | 34.73285 | -92.23968 | 261 ft | 8 kts | 183° |
| 2026-04-24 05:42 | 34.73243 | -92.23972 | 261 ft | 1 kts | 191° |
| 2026-04-24 05:42 | 34.73167 | -92.24014 | 261 ft | 14 kts | 266° |
| 2026-04-24 05:42 | 34.73213 | -92.24079 | 261 ft | 9 kts | 349° |
| 2026-04-24 05:42 | 34.73246 | -92.24080 | 261 ft | 0 kts | 1° |